AirNav   Air Wisconsin Airman Trainee
 
 1532 users online  

75J Turner County Airport
Ashburn, Georgia, USA

GOING TO ASHBURN?


FAA INFORMATION EFFECTIVE 28 FEBRUARY 2019

Location

FAA Identifier: 75J
Lat/Long: 31-41-15.4000N / 083-37-58.6000W
31-41.256667N / 083-37.976667W
31.6876111 / -83.6329444
(estimated)
Elevation: 388.9 ft. / 118.5 m (surveyed)
Variation: 06W (2020)
From city: 2 miles SE of ASHBURN, GA
Time zone: UTC -5 (UTC -4 during Daylight Saving Time)
Zip code: 31790

Airport Operations

Airport use: Open to the public
Control tower: no
ARTCC: JACKSONVILLE CENTER
FSS: MACON FLIGHT SERVICE STATION
NOTAMs facility: MCN (NOTAM-D service available)
Attendance: UNATNDD
Wind indicator: lighted
Segmented circle: yes
Lights: DUSK-0000. MIRL RY 17/35 OPER DUSK-0000. AFTER 0000, ACTVT MIRL RY 17/35.
Beacon: white-green (lighted land airport)
ROTG BCN LCTD ON WATER TANK 1/4 MILE NW OF ARPT. Operates sunset to sunrise.

Airport Communications

CTAF/UNICOM: 122.7
WX AWOS-3PT at TMA (17 nm SE): 118.525 (229-386-8937)
WX AWOS-3 at FZG (18 nm E): 118.625 (229-426-5072)
WX AWOS-3PT at CKF (19 nm N): 119.325 (229-276-2669)
  • APCH/DEP SVC PRVDD BY JACKSONVILLE ARTCC (ZJX) ON 125.75/363.075 (ALBANY RCAG)

Nearby radio navigation aids

VOR radial/distance  VOR name  Freq  Var
IFMr336/(17.2)TIFT MYERS VOR112.5001W
VNAr191/32.3VIENNA VORTAC116.5001E
PZDr089/33.8PECAN VOR/DME116.1002W

 
NDB name  Hdg/Dist  Freq  Var  ID
FITZGERALD289/18.036205WSUR ... ..- .-.
CONEY154/22.040006WOHY --- .... -.--
EASTMAN226/36.136604WEZM . --.. --
LINDBERGH144/37.924204WLKG .-.. -.- --.

Airport Services

Parking: tiedowns
Airframe service: NONE
Powerplant service: NONE
Bottled oxygen: NONE
Bulk oxygen: NONE

Runway Information

Runway 17/35

Dimensions: 5005 x 75 ft. / 1526 x 23 m
Surface: asphalt, in excellent condition
Weight bearing capacity: 
Single wheel: 30.0
Runway edge lights: medium intensity
RUNWAY 17  RUNWAY 35
Latitude: 31-41.649090N31-40.864370N
Longitude: 083-38.127205W083-37.827328W
Elevation: 388.8 ft.387.8 ft.
Gradient: 0.3%0.3%
Traffic pattern: leftleft
Markings: nonprecision, in good conditionnonprecision, in good condition
Touchdown point: yes, no lightsyes, no lights
Obstructions: 60 ft. trees, 1400 ft. from runway, 20:1 slope to clear44 ft. trees, 508 ft. from runway, 164 ft. left of centerline, 7:1 slope to clear

Airport Ownership and Management from official FAA records

Ownership: Publicly-owned
Owner: TURNER COUNTY
PO BOX 191
ASHBURN, GA 31714
Phone 229-567-4313
Manager: MIKE MASTRARIO
P.O. BOX 191
ASHBURN, GA 31714
Phone 229-567-3563
EMERGENCY CONTACT: 229-567-1871 OR 229-567-2754.

Airport Operational Statistics

Aircraft based on the field: 4
Single engine airplanes: 4
    
Aircraft operations: avg 60/week *
51% local general aviation
46% transient general aviation
3% military
* for 12-month period ending 31 December 2016

Instrument Procedures

NOTE: All procedures below are presented as PDF files. If you need a reader for these files, you should download the free Adobe Reader.

NOT FOR NAVIGATION. Please procure official charts for flight.
FAA instrument procedures published for use from 28 February 2019 at 0901Z to 28 March 2019 at 0900Z.

 
IAPs - Instrument Approach Procedures
RNAV (GPS) RWY 17   download (165KB)
RNAV (GPS) RWY 35   download (178KB)
NOTE: Special Take-Off Minimums/Departure Procedures apply   download (1015KB)

Other nearby airports with instrument procedures:

KTMA - Henry Tift Myers Airport (17 nm SE)
KFZG - Fitzgerald Municipal Airport (18 nm E)
KCKF - Crisp County-Cordele Airport (19 nm N)
KABY - Southwest Georgia Regional Airport (30 nm W)
15J - Cook County Airport (34 nm S)
 
Loc | Ops | Rwys | IFR | FBO | Links
Com | Nav | Svcs | Stats | Notes
Area around 75J (Turner County Airport)
 
Road maps at: MapQuest Bing Google
 
Aerial photo
WARNING: Photo may not be current or correct
Aerial photo of 75J (Turner County Airport)
Photo by Grayson Watson
Taken in March 2007

Do you have a better or more recent aerial photo of Turner County Airport that you would like to share? If so, please send us your photo.

 
Sectional chart

 
Airport distance calculator
Flying to Turner County Airport? Find the distance to fly.

From to 75J

Sunrise and sunset
Times for 25-Mar-2019
 Local
(UTC-4)
 Zulu
(UTC)
Morning civil twilight07:0911:09
Sunrise07:3311:33
Sunset19:4823:48
Evening civil twilight20:1300:13

Current date and time
Zulu (UTC)  25-Mar-2019 16:20:36
Local (UTC-4)  25-Mar-2019 12:20:36
 
METAR
KTMA 
17nm SE 
251555Z AUTO 25011KT 10SM SCT025 SCT100 19/12 A3012 RMK AO2 T01900117
KFZG 
18nm E 
251555Z AUTO 27005KT 10SM SCT100 21/12 A3014 RMK AO2 T02060123 PWINO
KCKF 
19nm N 
251555Z AUTO 26010KT 10SM SCT026 BKN100 19/11 A3012 RMK AO2 T01920114
KABY 
30nm W 
251553Z 24008KT 10SM FEW026 BKN031 BKN095 21/13 A3014 RMK AO2 SLP203 T02060128
TAF
KABY 
30nm W 
251120Z 2512/2612 17004KT P6SM SKC FM251300 25009KT P6SM SCT040 SCT250 FM260000 25007KT P6SM VCTS BKN040CB FM260400 26005KT P6SM SCT050
NOTAMs
Click for the latest NOTAMs
NOTAMs are issued by the DoD/FAA and will open in a separate window not controlled by AirNav.

 

 
 

Would you like to see your business listed on this page?

 If your business provides an interesting product or service to pilots, flight crews, aircraft, or users of the Turner County Airport, you should consider listing it here.  To start the listing process, click on the button below
 
Add a business
 

Other Pages about Turner County Airport

Update a link
 
Copyright © AirNav, LLC. All rights reserved. Privacy Policy  Contact